createdAt,value
2022-08-25T00:02:55.087Z,26.09
2022-08-25T00:07:38.436Z,26.09
2022-08-25T00:12:31.009Z,26.09
2022-08-25T00:17:23.814Z,26.04
2022-08-25T00:22:16.417Z,26.05
2022-08-25T00:27:09.124Z,26.01
2022-08-25T00:32:01.757Z,26.03
2022-08-25T00:36:54.366Z,26.02
2022-08-25T00:41:47.223Z,25.99
2022-08-25T00:46:40.027Z,25.97
2022-08-25T00:51:32.723Z,25.99
2022-08-25T00:56:25.529Z,25.98
2022-08-25T01:01:18.174Z,25.92
2022-08-25T01:06:10.921Z,25.93
2022-08-25T01:11:03.566Z,25.85
2022-08-25T01:15:56.635Z,25.89
2022-08-25T01:20:44.055Z,25.89
2022-08-25T01:25:36.762Z,25.87
2022-08-25T01:30:30.409Z,25.83
2022-08-25T01:35:23.164Z,25.84
2022-08-25T01:40:15.692Z,25.84
2022-08-25T01:45:08.300Z,25.82
2022-08-25T01:50:00.935Z,25.78
2022-08-25T01:54:53.622Z,25.8
2022-08-25T01:59:46.331Z,25.77
2022-08-25T02:04:38.617Z,25.77
2022-08-25T02:09:31.285Z,25.73
2022-08-25T02:14:24.131Z,25.7
2022-08-25T02:19:16.891Z,25.73
2022-08-25T02:24:09.612Z,25.7
2022-08-25T02:29:02.245Z,25.68
2022-08-25T02:33:54.678Z,25.66
2022-08-25T02:38:47.373Z,25.68
2022-08-25T02:43:40.104Z,25.69
2022-08-25T02:48:32.795Z,25.69
2022-08-25T02:53:25.263Z,25.62
2022-08-25T02:58:18.146Z,25.62
2022-08-25T03:03:10.778Z,25.64
2022-08-25T03:08:03.509Z,25.58
2022-08-25T03:12:56.164Z,25.57
2022-08-25T03:17:48.809Z,25.6
2022-08-25T03:27:33.946Z,25.54
2022-08-25T03:32:26.690Z,25.57
2022-08-25T03:37:19.390Z,25.53
2022-08-25T03:42:12.111Z,25.55
2022-08-25T03:47:04.720Z,25.51
2022-08-25T03:51:57.317Z,25.52
2022-08-25T03:56:49.932Z,25.48
2022-08-25T04:01:42.669Z,25.5
2022-08-25T04:06:35.339Z,25.49
2022-08-25T04:11:27.505Z,25.5
2022-08-25T04:16:20.296Z,25.45
2022-08-25T04:21:12.831Z,25.44
2022-08-25T04:26:05.494Z,25.43
2022-08-25T04:30:58.251Z,25.42
2022-08-25T04:35:50.930Z,25.41
2022-08-25T04:40:43.687Z,25.41
2022-08-25T04:45:36.463Z,25.44
2022-08-25T04:50:29.216Z,25.41
2022-08-25T04:55:21.856Z,25.39
2022-08-25T05:00:14.569Z,25.41
2022-08-25T05:05:06.866Z,25.14
2022-08-25T05:09:59.197Z,24.76
2022-08-25T05:14:51.860Z,24.53
2022-08-25T05:19:44.330Z,24.47
2022-08-25T05:24:37.014Z,24.35
2022-08-25T05:29:29.674Z,24.3
2022-08-25T05:34:22.281Z,24.2
2022-08-25T05:39:15.033Z,24
2022-08-25T05:44:06.552Z,23.61
2022-08-25T05:48:59.695Z,23.9
2022-08-25T05:53:51.791Z,23.48
2022-08-25T05:58:44.649Z,23.61
2022-08-25T06:03:37.526Z,23.77
2022-08-25T06:08:24.712Z,23.84
2022-08-25T06:13:18.147Z,23.89
2022-08-25T06:18:11.930Z,23.49
2022-08-25T06:23:04.100Z,23.15
2022-08-25T06:27:57.736Z,23.74
2022-08-25T06:32:50.409Z,23.86
2022-08-25T06:37:42.665Z,23.58
2022-08-25T06:42:35.517Z,23.37
2022-08-25T06:47:28.785Z,23.68
2022-08-25T06:52:21.235Z,23.44
2022-08-25T06:57:12.664Z,23.22
2022-08-25T07:02:06.079Z,23.8
2022-08-25T07:06:58.960Z,23.87
2022-08-25T07:11:51.395Z,23.86
2022-08-25T07:16:48.675Z,23.98
2022-08-25T07:21:36.362Z,23.87
2022-08-25T07:26:37.560Z,23.67
2022-08-25T07:31:17.166Z,23.92
2022-08-25T07:36:10.225Z,23.94
2022-08-25T07:41:03.452Z,24.07
2022-08-25T07:45:56.137Z,24.23
2022-08-25T07:50:49.008Z,24.27
2022-08-25T07:55:41.862Z,24.3
2022-08-25T08:00:35.951Z,24.42
2022-08-25T08:05:27.604Z,24.57
2022-08-25T08:15:13.081Z,24.82
2022-08-25T08:20:05.917Z,24.67
2022-08-25T08:24:59.106Z,24.96
2022-08-25T08:29:51.613Z,25.07
2022-08-25T08:34:43.906Z,25.11
2022-08-25T08:39:37.012Z,25.14
2022-08-25T08:44:29.314Z,25.22
2022-08-25T08:49:22.341Z,25.32
2022-08-25T08:54:15.820Z,25.39
2022-08-25T08:59:08.291Z,25.42
2022-08-25T09:04:00.739Z,25.47
2022-08-25T09:08:53.391Z,25.45
2022-08-25T09:13:46.302Z,25.47
2022-08-25T09:18:40.856Z,25.48
2022-08-25T09:23:31.849Z,25.48
2022-08-25T09:28:24.857Z,25.5
2022-08-25T09:33:19.311Z,25.5
2022-08-25T09:38:10.325Z,25.54
2022-08-25T09:43:03.268Z,25.55
2022-08-25T09:47:55.689Z,25.55
2022-08-25T09:52:53.307Z,25.56
2022-08-25T09:57:41.142Z,25.57
2022-08-25T10:02:34.068Z,25.6
2022-08-25T10:07:27.065Z,25.63
2022-08-25T10:12:19.703Z,25.65
2022-08-25T10:17:12.534Z,25.68
2022-08-25T10:22:05.423Z,25.68
2022-08-25T10:31:51.468Z,25.74
2022-08-25T10:36:47.019Z,25.8
2022-08-25T10:41:37.367Z,25.84
2022-08-25T10:51:25.484Z,25.9
2022-08-25T10:56:15.593Z,25.94
2022-08-25T11:01:08.676Z,25.95
2022-08-25T11:06:01.201Z,25.98
2022-08-25T11:10:54.042Z,26.02
2022-08-25T11:16:06.474Z,26.06
2022-08-25T11:20:39.600Z,26.08
2022-08-25T11:25:32.470Z,26.12
2022-08-25T11:30:25.859Z,26.14
2022-08-25T11:35:17.815Z,26.18
2022-08-25T11:40:10.480Z,26.21
2022-08-25T11:45:03.132Z,26.22
2022-08-25T11:49:55.897Z,26.26
2022-08-25T11:54:48.858Z,26.29
2022-08-25T11:59:41.668Z,26.34
2022-08-25T12:04:35.636Z,26.38
2022-08-25T12:09:27.456Z,26.4
2022-08-25T12:14:20.213Z,26.45
2022-08-25T12:19:13.075Z,26.49
2022-08-25T12:24:05.868Z,26.52
2022-08-25T12:28:58.475Z,26.56
2022-08-25T12:33:56.508Z,26.6
2022-08-25T12:38:51.074Z,26.63
2022-08-25T12:43:42.117Z,26.68
2022-08-25T12:48:33.959Z,26.71
2022-08-25T12:53:26.572Z,26.75
2022-08-25T12:58:19.277Z,26.77
2022-08-25T13:03:12.390Z,26.8
2022-08-25T13:08:04.979Z,26.84
2022-08-25T13:12:57.654Z,26.89
2022-08-25T13:17:50.465Z,26.97
2022-08-25T13:22:43.300Z,27.05
2022-08-25T13:27:36.047Z,27.09
2022-08-25T13:32:31.957Z,27.13
2022-08-25T13:37:21.843Z,27.11
2022-08-25T13:42:14.788Z,27.12
2022-08-25T13:47:07.534Z,27.11
2022-08-25T13:52:00.304Z,27.16
2022-08-25T13:56:53.160Z,27.17
2022-08-25T14:01:47.845Z,27.19
2022-08-25T14:06:38.640Z,27.2
2022-08-25T14:11:31.611Z,27.21
2022-08-25T14:16:25.426Z,27.25
2022-08-25T14:21:17.450Z,27.25
2022-08-25T14:26:10.123Z,27.26
2022-08-25T14:31:02.848Z,27.25
2022-08-25T14:35:55.648Z,27.28
2022-08-25T14:40:48.556Z,27.3
2022-08-25T14:45:41.418Z,27.31
2022-08-25T14:50:34.170Z,27.31
2022-08-25T14:55:31.411Z,27.32
2022-08-25T15:00:20.780Z,27.35
2022-08-25T15:05:12.822Z,27.36
2022-08-25T15:10:05.376Z,27.35
2022-08-25T15:14:58.156Z,27.37
2022-08-25T15:19:51.024Z,27.37
2022-08-25T15:24:43.662Z,27.38
2022-08-25T15:29:36.414Z,27.4
2022-08-25T15:34:29.137Z,27.43
2022-08-25T15:39:21.886Z,27.43
2022-08-25T15:44:14.441Z,27.42
2022-08-25T15:49:07.805Z,27.42
2022-08-25T15:53:59.827Z,27.43
2022-08-25T15:58:52.577Z,27.44
2022-08-25T16:03:45.427Z,27.44
2022-08-25T16:08:38.193Z,27.43
2022-08-25T16:13:30.892Z,27.43
2022-08-25T16:18:23.706Z,27.43
2022-08-25T16:28:09.099Z,27.43
2022-08-25T16:33:01.935Z,27.42
2022-08-25T16:37:54.653Z,27.43
2022-08-25T16:42:47.219Z,27.43
2022-08-25T16:47:39.805Z,27.41
2022-08-25T16:52:32.641Z,27.41
2022-08-25T16:57:25.210Z,27.44
2022-08-25T17:02:18.594Z,27.44
2022-08-25T17:07:10.695Z,27.45
2022-08-25T17:12:03.474Z,27.46
2022-08-25T17:16:56.329Z,27.46
2022-08-25T17:21:49.933Z,27.43
2022-08-25T17:26:41.660Z,27.43
2022-08-25T17:31:34.318Z,27.43
2022-08-25T17:36:27.491Z,27.42
2022-08-25T17:41:19.821Z,27.4
2022-08-25T17:46:12.451Z,27.4
2022-08-25T17:51:05.122Z,27.4
2022-08-25T17:55:57.920Z,27.41
2022-08-25T18:00:50.840Z,27.41
2022-08-25T18:05:43.544Z,27.39
2022-08-25T18:10:36.355Z,27.39
2022-08-25T18:15:29.195Z,27.39
2022-08-25T18:20:21.797Z,27.38
2022-08-25T18:25:14.585Z,27.37
2022-08-25T18:30:07.193Z,27.35
2022-08-25T18:35:00.084Z,27.3
2022-08-25T18:39:53.079Z,27.3
2022-08-25T18:44:46.733Z,27.29
2022-08-25T18:49:38.686Z,27.3
2022-08-25T18:54:31.478Z,27.27
2022-08-25T18:59:24.321Z,27.25
2022-08-25T19:04:17.034Z,27.28
2022-08-25T19:09:09.829Z,27.26
2022-08-25T19:14:02.557Z,27.2
2022-08-25T19:18:52.078Z,27.23
2022-08-25T19:23:45.891Z,27.19
2022-08-25T19:28:32.545Z,27.2
2022-08-25T19:33:31.546Z,27.15
2022-08-25T19:38:33.318Z,27.1
2022-08-25T19:43:12.397Z,27.11
2022-08-25T19:48:05.198Z,27.09
2022-08-25T19:52:58.080Z,27.09
2022-08-25T19:57:50.826Z,27.11
2022-08-25T20:02:43.479Z,27.09
2022-08-25T20:07:36.169Z,27.09
2022-08-25T20:12:29.182Z,27.1
2022-08-25T20:17:24.159Z,27.07
2022-08-25T20:22:17.452Z,27.06
2022-08-25T20:27:07.504Z,27.06
2022-08-25T20:32:00.175Z,27.05
2022-08-25T20:36:52.760Z,27.04
2022-08-25T20:41:48.140Z,26.99
2022-08-25T20:46:38.241Z,27
2022-08-25T20:51:30.914Z,26.96
2022-08-25T20:56:23.738Z,26.97
2022-08-25T21:01:19.827Z,26.98
2022-08-25T21:06:09.102Z,26.96
2022-08-25T21:11:02.025Z,26.94
2022-08-25T21:15:54.732Z,26.9
2022-08-25T21:20:47.578Z,26.9
2022-08-25T21:25:40.306Z,26.9
2022-08-25T21:30:32.965Z,26.89
2022-08-25T21:35:25.570Z,26.87
2022-08-25T21:40:18.451Z,26.88
2022-08-25T21:45:11.491Z,26.82
2022-08-25T21:50:03.946Z,26.84
2022-08-25T21:54:56.704Z,26.81
2022-08-25T21:59:43.685Z,26.81
2022-08-25T22:04:36.889Z,26.81
2022-08-25T22:14:23.755Z,26.78
2022-08-25T22:19:16.288Z,26.77
2022-08-25T22:24:10.953Z,26.8
2022-08-25T22:29:03.205Z,26.78
2022-08-25T22:33:55.948Z,26.72
2022-08-25T22:38:48.814Z,26.75
2022-08-25T22:43:41.659Z,26.76
2022-08-25T22:48:34.504Z,26.75
2022-08-25T22:53:27.307Z,26.74
2022-08-25T22:58:19.932Z,26.75
2022-08-25T23:03:12.805Z,26.74
2022-08-25T23:08:05.481Z,26.72
2022-08-25T23:12:58.100Z,26.7
2022-08-25T23:17:50.751Z,26.7
2022-08-25T23:22:43.463Z,26.7
2022-08-25T23:27:36.451Z,26.7
2022-08-25T23:32:29.102Z,26.69
2022-08-25T23:37:21.900Z,26.63
2022-08-25T23:42:14.695Z,26.62
2022-08-25T23:47:07.266Z,26.65
2022-08-25T23:52:00.047Z,26.63
2022-08-25T23:56:52.892Z,26.66
